Terminal Aerodrome Forecast
Issued by NWS

Current Version | Previous Version | Graphics & Text | Print | Product List | Glossary On
Versions: 1 2 3 4 5 6 7 8 9 10 11 12 13
000
FTUS41 KILN 020500
TAFLCK
TAF
KLCK 020520Z 0206/0306 VRB01KT P6SM FEW250
     FM021300 26006KT P6SM FEW060 SCT200
     FM022300 21005KT P6SM SKC=

USA.gov is the U.S. government's official web portal to all federal, state and local government web resources and services.